Time;durP1;ratioP1;P1;durP2;ratioP2;P2;SDS_P1;SDS_P2;PMS_P1;PMS_P2;Temp;Humidity;BMP_temperature;BMP_pressure;BME280_temperature;BME280_humidity;BME280_pressure;Samples;Min_cycle;Max_cycle;Signal;HPM_P1;HPM_P2
2023/03/10 00:00:07;;;;;;;2.27;1.33;;;;;;;10.80;51.51;93899.75;6179523;23;20833;-91
2023/03/10 00:02:48;;;;;;;3.27;1.50;;;;;;;10.79;51.21;93898.19;6179646;23;20173;-91
2023/03/10 00:05:18;;;;;;;1.53;1.20;;;;;;;10.78;51.31;93891.47;6180138;23;20178;-91
2023/03/10 00:07:49;;;;;;;1.73;1.20;;;;;;;10.80;50.94;93883.53;6180149;23;20174;-91
2023/03/10 00:10:46;;;;;;;2.93;1.30;;;;;;;10.82;51.00;93877.16;6179288;23;20190;-91
2023/03/10 00:13:32;;;;;;;1.93;1.20;;;;;;;10.71;50.62;93875.34;6170231;23;20257;-91
2023/03/10 00:16:06;;;;;;;2.83;1.17;;;;;;;10.65;50.87;93873.63;6179471;23;20188;-91
2023/03/10 00:22:17;;;;;;;2.07;1.30;;;;;;;10.68;50.96;93855.97;6178307;23;20174;-91
2023/03/10 00:25:10;;;;;;;1.73;1.10;;;;;;;10.65;51.04;93856.41;6179917;23;20804;-91
2023/03/10 00:27:41;;;;;;;2.20;1.20;;;;;;;10.66;50.62;93849.47;6129517;23;20779;-91
2023/03/10 00:30:33;;;;;;;2.67;1.30;;;;;;;10.68;50.56;93850.03;6179380;23;20229;-91
2023/03/10 00:33:07;;;;;;;3.13;1.50;;;;;;;10.70;50.84;93843.66;6132637;23;20561;-91
2023/03/10 00:36:12;;;;;;;2.63;1.60;;;;;;;10.63;50.60;93844.75;6179228;23;20237;-91
2023/03/10 00:41:23;;;;;;;4.97;1.30;;;;;;;10.63;51.05;93840.38;6121201;23;20186;-91
2023/03/10 00:43:56;;;;;;;2.97;1.53;;;;;;;10.59;50.84;93836.69;6120217;23;20187;-92
2023/03/10 00:46:37;;;;;;;1.60;1.10;;;;;;;10.61;51.06;93828.75;6120001;23;20202;-92
2023/03/10 00:49:15;;;;;;;1.73;1.20;;;;;;;10.51;50.58;93821.56;6120151;23;20195;-91
2023/03/10 00:51:44;;;;;;;1.40;1.10;;;;;;;10.46;50.70;93825.78;6119911;23;20511;-91
2023/03/10 00:54:12;;;;;;;1.20;1.10;;;;;;;10.48;51.19;93818.63;6120197;23;20191;-91
2023/03/10 00:56:46;;;;;;;2.40;1.33;;;;;;;10.46;50.91;93812.94;6119690;23;20175;-90
2023/03/10 00:59:26;;;;;;;2.03;1.10;;;;;;;10.51;50.92;93803.56;6120233;23;20212;-91
2023/03/10 01:02:11;;;;;;;1.23;1.10;;;;;;;10.51;50.36;93803.56;6119741;23;20164;-92
2023/03/10 01:07:30;;;;;;;1.80;1.10;;;;;;;10.60;49.99;93789.34;6115887;23;20643;-91
2023/03/10 01:09:58;;;;;;;2.53;1.20;;;;;;;10.64;50.56;93775.06;6122246;23;20195;-90
2023/03/10 01:12:29;;;;;;;2.60;1.23;;;;;;;10.68;50.59;93781.34;6119147;23;20206;-91
2023/03/10 01:15:06;;;;;;;1.47;1.10;;;;;;;10.68;49.94;93773.63;6120155;23;20175;-91
2023/03/10 01:17:39;;;;;;;1.90;1.23;;;;;;;10.73;50.19;93760.09;6120055;23;20246;-91
2023/03/10 01:20:16;;;;;;;2.27;1.20;;;;;;;10.73;50.06;93754.94;6120243;23;20215;-91
2023/03/10 01:22:50;;;;;;;1.50;1.07;;;;;;;10.73;50.38;93757.50;6119603;23;20171;-91
2023/03/10 01:25:27;;;;;;;2.40;1.10;;;;;;;10.69;50.10;93746.88;6120009;23;20170;-91
2023/03/10 01:30:48;;;;;;;2.07;1.10;;;;;;;10.68;50.46;93745.31;6156140;23;20216;-91
2023/03/10 01:33:26;;;;;;;1.07;0.97;;;;;;;10.70;49.97;93743.28;6178817;23;20170;-90
2023/03/10 01:36:18;;;;;;;2.00;1.27;;;;;;;10.68;49.83;93735.00;6178336;23;20196;-91
2023/03/10 01:39:17;;;;;;;5.13;1.20;;;;;;;10.72;49.99;93733.56;6169920;23;20205;-91
2023/03/10 01:41:44;;;;;;;1.57;1.10;;;;;;;10.76;49.86;93721.03;6177705;23;20182;-91
2023/03/10 01:44:20;;;;;;;1.73;1.00;;;;;;;10.68;49.64;93713.63;6178719;23;20177;-91
2023/03/10 01:46:57;;;;;;;1.20;1.10;;;;;;;10.67;49.94;93710.28;6179654;23;20197;-91
2023/03/10 01:49:35;;;;;;;2.03;1.20;;;;;;;10.67;49.52;93710.28;6177751;23;20217;-91
2023/03/10 01:52:12;;;;;;;2.37;1.07;;;;;;;10.71;49.64;93697.75;6178760;23;20525;-91
2023/03/10 01:54:54;;;;;;;2.10;1.20;;;;;;;10.67;49.89;93702.56;6179377;23;20213;-91
2023/03/10 01:57:37;;;;;;;1.67;1.10;;;;;;;10.68;49.99;93690.47;6179776;23;20672;-91
2023/03/10 02:00:32;;;;;;;1.27;1.10;;;;;;;10.68;49.96;93680.19;6180359;23;20186;-91
2023/03/10 02:03:19;;;;;;;1.73;0.97;;;;;;;10.57;49.91;93676.59;6180231;23;20221;-91
2023/03/10 02:05:58;;;;;;;2.03;1.20;;;;;;;10.53;50.15;93674.69;6180711;23;20221;-91
2023/03/10 02:08:45;;;;;;;1.23;1.00;;;;;;;10.47;50.42;93660.91;6180437;23;20185;-91
2023/03/10 02:11:14;;;;;;;1.67;1.00;;;;;;;10.48;50.64;93661.72;6180200;23;20174;-91
2023/03/10 02:13:52;;;;;;;2.33;1.30;;;;;;;10.50;50.16;93652.75;6179744;23;20601;-90
2023/03/10 02:16:19;;;;;;;1.37;1.10;;;;;;;10.50;50.52;93649.41;6180208;23;20194;-91
2023/03/10 02:18:48;;;;;;;2.00;1.07;;;;;;;10.51;50.55;93648.41;6179712;23;20491;-90
2023/03/10 02:21:29;;;;;;;1.80;1.27;;;;;;;10.53;50.81;93636.88;6180431;23;20174;-90
2023/03/10 02:24:10;;;;;;;1.77;1.10;;;;;;;10.51;50.45;93633.75;6180960;23;20540;-92
2023/03/10 02:29:40;;;;;;;2.87;0.90;;;;;;;10.41;50.13;93630.16;6104946;23;20721;-91
2023/03/10 02:32:11;;;;;;;1.40;1.10;;;;;;;10.33;50.30;93621.78;6180090;23;20244;-91
2023/03/10 02:35:01;;;;;;;1.87;1.30;;;;;;;10.29;50.77;93610.38;6181004;23;20197;-90
2023/03/10 02:37:52;;;;;;;;;;;;;;;;;;;;;
2023/03/10 02:40:46;;;;;;;1.03;0.90;;;;;;;10.18;51.05;93615.47;6179701;23;20190;-90
2023/03/10 02:43:22;;;;;;;2.20;1.00;;;;;;;10.12;51.21;93604.28;6176043;23;20181;-91
2023/03/10 02:45:51;;;;;;;3.67;1.33;;;;;;;10.14;51.32;93599.69;6180327;23;20170;-91
2023/03/10 02:48:23;;;;;;;1.53;1.10;;;;;;;10.10;51.21;93600.38;6180006;23;20758;-90
2023/03/10 02:50:57;;;;;;;1.73;1.27;;;;;;;10.09;51.19;93591.09;6180422;23;20256;-91
2023/03/10 02:53:52;;;;;;;2.57;1.33;;;;;;;10.02;51.94;93580.91;6179949;23;20162;-91
2023/03/10 02:56:28;;;;;;;1.50;1.07;;;;;;;10.06;51.53;93579.44;6179187;23;20700;-90
2023/03/10 02:58:55;;;;;;;1.40;1.30;;;;;;;9.93;51.41;93577.88;6180416;23;20225;-90
2023/03/10 03:01:26;;;;;;;1.43;1.10;;;;;;;10.01;51.43;93579.31;6180245;23;20512;-90
2023/03/10 03:03:55;;;;;;;3.63;1.47;;;;;;;9.91;51.45;93579.88;6179866;23;20177;-91
2023/03/10 03:06:39;;;;;;;;;;;;;;;;;;;;;
2023/03/10 03:09:05;;;;;;;2.10;1.30;;;;;;;9.95;51.63;93575.88;6180145;23;20197;-90
2023/03/10 03:11:32;;;;;;;1.30;1.10;;;;;;;9.97;51.59;93573.88;6179755;23;20234;-91
2023/03/10 03:14:04;;;;;;;2.73;1.40;;;;;;;9.95;51.64;93577.66;6178558;23;20174;-91
2023/03/10 03:16:45;;;;;;;1.40;1.03;;;;;;;9.94;51.65;93579.44;6180093;23;20179;-90
2023/03/10 03:19:15;;;;;;;2.23;1.33;;;;;;;9.83;51.73;93562.22;6179832;23;20198;-91
2023/03/10 03:21:48;;;;;;;2.97;1.40;;;;;;;9.84;51.88;93565.56;6178985;23;20174;-90
2023/03/10 03:24:16;;;;;;;1.53;1.20;;;;;;;9.87;52.10;93568.47;6179489;23;20180;-91
2023/03/10 03:26:46;;;;;;;1.43;1.07;;;;;;;9.81;51.99;93566.81;6180199;23;20768;-92
2023/03/10 03:29:16;;;;;;;2.17;1.23;;;;;;;9.74;52.11;93562.75;6178945;23;20201;-91
2023/03/10 03:31:47;;;;;;;1.97;1.30;;;;;;;9.80;52.30;93570.38;6179984;23;20165;-91
2023/03/10 03:34:16;;;;;;;1.93;1.33;;;;;;;9.82;51.97;93570.13;6179824;23;20158;-90
2023/03/10 03:37:05;;;;;;;2.53;1.30;;;;;;;9.81;51.95;93566.03;6179973;23;20306;-91
2023/03/10 03:39:43;;;;;;;2.87;1.33;;;;;;;9.83;51.98;93582.75;6179896;23;20199;-90
2023/03/10 03:42:17;;;;;;;1.70;1.20;;;;;;;9.89;51.81;93581.91;6179545;23;20198;-91
2023/03/10 03:44:48;;;;;;;2.30;1.40;;;;;;;9.88;52.00;93582.91;6179893;23;20165;-90
2023/03/10 03:47:21;;;;;;;2.27;1.37;;;;;;;9.95;51.97;93585.38;6179985;23;20162;-90
2023/03/10 03:49:50;;;;;;;2.47;1.13;;;;;;;10.00;51.64;93599.13;6179063;23;20190;-92
2023/03/10 03:52:21;;;;;;;1.80;1.40;;;;;;;9.93;52.32;93603.59;6179158;23;20182;-91
2023/03/10 03:54:57;;;;;;;2.40;1.13;;;;;;;10.02;52.18;93617.66;6180004;23;20175;-90
2023/03/10 03:57:24;;;;;;;1.47;1.03;;;;;;;10.02;52.35;93651.09;6179599;23;20181;-91
2023/03/10 04:00:06;;;;;;;1.20;1.00;;;;;;;9.92;52.13;93656.00;6179828;23;20222;-90
2023/03/10 04:02:43;;;;;;;2.10;1.30;;;;;;;9.91;52.28;93669.84;6179994;23;20155;-90
2023/03/10 04:05:10;;;;;;;1.70;1.17;;;;;;;9.84;53.07;93666.56;6179336;23;20189;-90
2023/03/10 04:07:38;;;;;;;1.60;1.10;;;;;;;9.75;53.23;93669.69;6179975;23;20170;-91
2023/03/10 04:10:36;;;;;;;2.47;1.30;;;;;;;9.79;53.21;93673.38;6179265;23;20210;-90
2023/03/10 04:13:04;;;;;;;1.47;1.10;;;;;;;9.84;52.80;93682.00;6178701;23;20175;-91
2023/03/10 04:15:55;;;;;;;3.63;1.20;;;;;;;9.85;53.10;93687.91;6179570;23;20198;-90
2023/03/10 04:18:30;;;;;;;0.90;0.90;;;;;;;9.72;52.81;93686.31;6179458;23;20170;-90
2023/03/10 04:21:04;;;;;;;2.63;1.20;;;;;;;9.66;52.96;93682.03;6179419;23;20220;-90
2023/03/10 04:23:33;;;;;;;1.10;0.87;;;;;;;9.63;52.83;93688.38;6179010;23;20154;-91
2023/03/10 04:26:01;;;;;;;1.63;1.10;;;;;;;9.76;52.79;93687.47;6179346;23;20175;-91
2023/03/10 04:28:32;;;;;;;1.83;0.93;;;;;;;9.81;52.34;93676.53;6178636;23;20174;-90
2023/03/10 04:31:12;;;;;;;;;;;;;;;;;;;;;
2023/03/10 04:33:50;;;;;;;1.73;1.20;;;;;;;9.84;51.98;93669.13;6179640;23;20237;-91
2023/03/10 04:36:18;;;;;;;1.97;1.17;;;;;;;9.83;52.12;93670.16;6178431;23;20272;-90
2023/03/10 04:38:47;;;;;;;2.17;1.00;;;;;;;9.88;51.76;93666.94;6178729;23;20181;-91
2023/03/10 04:41:13;;;;;;;2.60;1.00;;;;;;;9.93;51.83;93674.78;6178979;23;20198;-91
2023/03/10 04:43:43;;;;;;;2.10;1.30;;;;;;;9.95;52.07;93668.41;6179062;23;20180;-91
2023/03/10 04:46:34;;;;;;;1.00;0.87;;;;;;;9.96;51.96;93664.84;6148913;23;20178;-91
2023/03/10 04:51:47;;;;;;;1.70;1.00;;;;;;;10.11;52.24;93669.56;6124186;23;20185;-91
2023/03/10 04:54:31;;;;;;;3.50;1.10;;;;;;;10.14;51.84;93669.13;6149535;23;20159;-90
2023/03/10 04:57:38;;;;;;;2.17;1.10;;;;;;;10.14;52.52;93671.69;6149705;23;20218;-90
2023/03/10 05:03:02;;;;;;;1.57;0.80;;;;;;;10.22;53.05;93670.59;6123083;23;20170;-90
2023/03/10 05:05:37;;;;;;;1.60;1.20;;;;;;;10.26;53.96;93675.09;6148432;23;20190;-90
2023/03/10 05:08:20;;;;;;;1.27;1.03;;;;;;;10.28;55.33;93664.59;6148751;23;20201;-90
2023/03/10 05:10:48;;;;;;;2.47;1.30;;;;;;;10.35;55.07;93671.22;6148179;23;20199;-90
2023/03/10 05:13:15;;;;;;;1.43;1.10;;;;;;;10.39;55.47;93664.59;6146993;23;20181;-90
2023/03/10 05:15:42;;;;;;;5.57;1.20;;;;;;;10.48;55.76;93670.22;6148561;23;20198;-91
2023/03/10 05:18:21;;;;;;;1.80;1.20;;;;;;;10.51;56.08;93672.34;6148854;23;20263;-90
2023/03/10 05:20:56;;;;;;;1.60;1.10;;;;;;;10.58;56.36;93677.38;6147664;23;20281;-90
2023/03/10 05:23:25;;;;;;;2.90;1.10;;;;;;;10.66;56.04;93672.69;6148527;23;20225;-90
2023/03/10 05:25:58;;;;;;;1.30;1.20;;;;;;;10.63;57.09;93677.47;6148441;23;20174;-90
2023/03/10 05:28:30;;;;;;;1.93;1.10;;;;;;;10.60;57.30;93671.00;6146782;23;20171;-90
2023/03/10 05:30:56;;;;;;;2.97;1.10;;;;;;;10.67;57.24;93676.81;6148256;23;20246;-90
2023/03/10 05:33:23;;;;;;;3.07;1.30;;;;;;;10.70;57.76;93684.09;6148783;23;20175;-90
2023/03/10 05:36:15;;;;;;;2.07;1.20;;;;;;;10.65;58.53;93678.84;6149921;23;20194;-91
2023/03/10 05:38:47;;;;;;;1.20;1.10;;;;;;;10.68;58.96;93686.09;6150462;23;20227;-90
2023/03/10 05:41:17;;;;;;;2.07;1.10;;;;;;;10.69;59.09;93684.31;6150280;23;20246;-90
2023/03/10 05:44:00;;;;;;;1.90;1.00;;;;;;;10.65;59.92;93686.56;6150070;23;20214;-90
2023/03/10 05:46:49;;;;;;;2.43;1.20;;;;;;;10.73;60.21;93670.78;6150311;23;20163;-89
2023/03/10 05:49:24;;;;;;;1.40;1.00;;;;;;;10.67;61.14;93678.59;6149649;23;20199;-90
2023/03/10 05:52:01;;;;;;;1.60;1.00;;;;;;;10.70;61.33;93684.09;6149505;23;20649;-89
2023/03/10 05:54:32;;;;;;;1.30;1.10;;;;;;;10.75;61.31;93674.94;6150310;23;20182;-91
2023/03/10 05:57:07;;;;;;;2.37;1.20;;;;;;;10.68;61.41;93670.66;6150394;23;20183;-90
2023/03/10 05:59:57;;;;;;;1.10;1.00;;;;;;;10.68;61.79;93655.22;6149613;23;20210;-90
2023/03/10 06:02:54;;;;;;;1.43;0.90;;;;;;;10.54;62.28;93651.31;6149711;23;20171;-91
2023/03/10 06:05:39;;;;;;;1.73;0.97;;;;;;;10.57;62.45;93632.88;6147363;23;20239;-90
2023/03/10 06:08:49;;;;;;;2.10;1.00;;;;;;;10.71;62.24;93644.50;6150165;23;20171;-90
2023/03/10 06:11:32;;;;;;;1.27;0.97;;;;;;;10.69;62.64;93645.72;6136335;23;20253;-90
2023/03/10 06:17:02;;;;;;;2.40;1.10;;;;;;;10.80;62.23;93629.47;6135056;23;20222;-91
2023/03/10 06:19:46;;;;;;;3.20;1.20;;;;;;;10.85;62.15;93637.31;6149979;23;20728;-88
2023/03/10 06:22:19;;;;;;;1.53;1.00;;;;;;;10.95;61.64;93634.97;6149777;23;20485;-90
2023/03/10 06:25:03;;;;;;;1.43;1.17;;;;;;;10.93;62.38;93621.53;6149756;23;20182;-91
2023/03/10 06:28:04;;;;;;;1.90;1.10;;;;;;;10.95;62.52;93616.16;6148511;23;20593;-92
2023/03/10 06:30:53;;;;;;;2.03;1.27;;;;;;;10.91;62.66;93615.81;6146402;23;20568;-88
2023/03/10 06:33:34;;;;;;;2.20;1.17;;;;;;;10.84;63.06;93604.84;6150241;23;20756;-91
2023/03/10 06:36:27;;;;;;;1.30;1.10;;;;;;;10.85;62.98;93597.91;6149473;23;20187;-91
2023/03/10 06:39:15;;;;;;;2.13;1.30;;;;;;;10.91;63.14;93602.16;6150312;23;20174;-90
2023/03/10 06:42:16;;;;;;;2.77;1.20;;;;;;;11.01;62.97;93584.34;6150863;23;20210;-90
2023/03/10 06:44:43;;;;;;;1.07;0.90;;;;;;;11.07;62.38;93586.78;6149679;23;20249;-91
2023/03/10 06:48:04;;;;;;;1.30;1.20;;;;;;;11.04;62.59;93566.63;6150323;23;20178;-91
2023/03/10 06:50:47;;;;;;;2.67;1.20;;;;;;;10.98;62.94;93584.78;6086931;23;20227;-90
2023/03/10 06:53:51;;;;;;;;;;;;;;;;;;;;;
2023/03/10 06:56:24;;;;;;;1.93;1.23;;;;;;;10.91;63.05;93582.34;6150474;23;20198;-90
2023/03/10 06:58:59;;;;;;;1.97;1.10;;;;;;;10.99;62.84;93576.03;6149936;23;20189;-91
2023/03/10 07:04:16;;;;;;;2.03;1.30;;;;;;;11.10;62.71;93577.03;6149510;23;20206;-90
2023/03/10 07:06:50;;;;;;;3.57;1.30;;;;;;;11.19;62.48;93562.78;6149991;23;20177;-91
2023/03/10 07:09:20;;;;;;;4.60;2.13;;;;;;;11.20;61.76;93559.97;6150231;23;20197;-91
2023/03/10 07:12:01;;;;;;;3.37;1.50;;;;;;;11.24;61.89;93553.34;6149488;23;20167;-90
2023/03/10 07:14:36;;;;;;;3.27;1.37;;;;;;;11.28;61.93;93541.59;6148328;23;20159;-92
2023/03/10 07:17:11;;;;;;;3.93;1.40;;;;;;;11.40;62.11;93547.47;6149164;23;20194;-91
2023/03/10 07:19:47;;;;;;;;;;;;;;;;;;;;;
2023/03/10 07:22:24;;;;;;;1.67;1.23;;;;;;;11.48;61.50;93546.31;6149586;23;20171;-91
2023/03/10 07:24:58;;;;;;;2.93;1.70;;;;;;;11.53;61.08;93553.34;6149532;23;20236;-90
2023/03/10 07:27:40;;;;;;;3.83;1.50;;;;;;;11.51;61.40;93553.59;6149482;23;20171;-91
2023/03/10 07:33:13;;;;;;;3.73;1.27;;;;;;;11.34;61.32;93568.22;6146777;23;20171;-90
2023/03/10 07:35:42;;;;;;;4.80;1.60;;;;;;;11.37;61.07;93572.91;6149282;23;20214;-90
2023/03/10 07:41:08;;;;;;;3.57;2.00;;;;;;;11.49;60.45;93567.72;6146907;23;20210;-91
2023/03/10 07:43:52;;;;;;;3.10;1.17;;;;;;;11.56;60.16;93561.38;6149115;23;20163;-91
2023/03/10 07:46:36;;;;;;;1.80;1.40;;;;;;;11.58;59.91;93553.44;6149483;23;20171;-90
2023/03/10 07:49:23;;;;;;;1.93;1.27;;;;;;;11.56;59.88;93556.22;6149077;23;20249;-90
2023/03/10 07:51:53;;;;;;;4.50;1.50;;;;;;;11.51;59.85;93552.81;6148439;23;20269;-91
2023/03/10 07:54:37;;;;;;;4.33;1.80;;;;;;;11.52;59.81;93554.38;6149497;23;20195;-90
2023/03/10 07:57:31;;;;;;;1.97;1.27;;;;;;;11.54;59.43;93557.50;6148560;23;20722;-90
2023/03/10 08:03:13;;;;;;;4.00;1.67;;;;;;;11.69;58.61;93552.59;6145922;23;20190;-90
2023/03/10 08:06:06;;;;;;;5.13;1.40;;;;;;;11.70;58.66;93544.63;6148780;23;20158;-90
2023/03/10 08:08:53;;;;;;;2.07;1.40;;;;;;;11.71;58.52;93542.84;6149380;23;20171;-90
2023/03/10 08:11:27;;;;;;;3.43;1.70;;;;;;;11.77;58.05;93526.44;6148490;23;20199;-90
2023/03/10 08:14:00;;;;;;;2.63;1.30;;;;;;;11.94;57.71;93526.44;6147753;23;20173;-90
2023/03/10 08:16:36;;;;;;;3.67;1.47;;;;;;;12.12;57.37;93517.72;6148757;23;20266;-90
2023/03/10 08:19:06;;;;;;;2.47;1.30;;;;;;;12.20;56.97;93522.44;6149248;23;20194;-90
2023/03/10 08:21:53;;;;;;;;;;;;;;;;;;;;;
2023/03/10 08:24:23;;;;;;;1.73;1.27;;;;;;;12.20;56.67;93519.88;6148694;23;20502;-91
2023/03/10 08:27:20;;;;;;;2.30;1.27;;;;;;;12.12;56.81;93517.72;6149080;23;20171;-92
2023/03/10 08:30:26;;;;;;;7.50;1.60;;;;;;;12.25;56.78;93517.38;6149157;23;20706;-90
2023/03/10 08:33:29;;;;;;;3.03;1.40;;;;;;;12.25;56.61;93507.84;6140197;23;20269;-91
2023/03/10 08:39:16;;;;;;;2.10;1.30;;;;;;;12.43;56.34;93499.03;6133836;23;20722;-92
2023/03/10 08:42:00;;;;;;;3.67;1.53;;;;;;;12.57;55.88;93496.88;6148613;23;20194;-91
2023/03/10 08:44:27;;;;;;;2.30;1.60;;;;;;;12.75;55.42;93499.16;6149078;23;20210;-91
2023/03/10 08:46:57;;;;;;;5.07;1.50;;;;;;;12.93;54.88;93498.84;6148955;23;20511;-90
2023/03/10 08:50:18;;;;;;;3.83;1.27;;;;;;;13.27;54.35;93502.09;6148875;23;20266;-91
2023/03/10 08:53:20;;;;;;;6.37;1.40;;;;;;;13.71;53.32;93502.72;5912915;24;20594;-92
2023/03/10 08:55:48;;;;;;;3.23;1.30;;;;;;;13.94;52.04;93503.41;5951911;23;20254;-91
2023/03/10 09:04:48;;;;;;;3.63;2.22;;;;;;;15.21;49.22;93504.81;6057516;23;20365;-92
2023/03/10 09:07:30;;;;;;;2.22;1.30;;;;;;;15.29;46.91;93501.75;6066301;23;20177;-91
2023/03/10 09:10:27;;;;;;;1.88;1.10;;;;;;;15.47;46.84;93501.25;6059798;23;20232;-91
2023/03/10 09:13:22;;;;;;;3.97;1.35;;;;;;;15.67;46.47;93510.91;6024371;23;20181;-92
2023/03/10 09:15:54;;;;;;;1.65;1.38;;;;;;;15.74;45.74;93508.84;6058914;23;20252;-91
2023/03/10 09:34:07;;;;;;;3.42;1.42;;;;;;;15.40;45.25;93510.31;6149387;23;20238;-92
2023/03/10 09:46:26;;;;;;;3.78;1.45;;;;;;;14.88;44.29;93518.97;5919177;24;20255;-91
2023/03/10 09:52:53;;;;;;;2.28;1.33;;;;;;;14.49;44.93;93526.31;5927173;23;20335;-91
2023/03/10 10:11:53;;;;;;;1.00;0.88;;;;;;;13.47;54.11;93603.06;6090607;23;20191;-92
2023/03/10 10:18:25;;;;;;;1.85;0.80;;;;;;;12.88;59.31;93627.94;6002031;23;20198;-91
2023/03/10 10:21:32;;;;;;;0.73;0.70;;;;;;;12.59;59.28;93636.81;5978153;23;20702;-93
2023/03/10 10:24:18;;;;;;;1.27;0.57;;;;;;;12.55;58.87;93635.72;5757610;24;20184;-91
2023/03/10 10:27:16;;;;;;;1.33;0.53;;;;;;;12.42;57.02;93640.19;5836479;24;20264;-91
2023/03/10 10:30:31;;;;;;;0.77;0.50;;;;;;;12.06;57.10;93663.84;5846200;24;20202;-91
2023/03/10 10:33:05;;;;;;;1.60;0.60;;;;;;;11.76;57.72;93672.59;5946791;24;20160;-90
2023/03/10 10:36:01;;;;;;;1.97;0.60;;;;;;;11.63;58.00;93696.06;6026210;23;20636;-91
2023/03/10 10:38:36;;;;;;;2.97;2.43;;;;;;;11.46;59.02;93673.81;6090808;23;20262;-90
2023/03/10 10:41:37;;;;;;;2.93;1.73;;;;;;;11.39;61.94;93669.56;6090574;23;20512;-91
2023/03/10 10:44:20;;;;;;;0.50;0.50;;;;;;;11.29;62.88;93658.28;6069928;23;20183;-91
2023/03/10 10:47:21;;;;;;;0.70;0.60;;;;;;;11.21;62.13;93659.41;6087705;23;20220;-91
2023/03/10 10:50:42;;;;;;;0.40;0.40;;;;;;;10.98;60.93;93644.78;6062840;23;20718;-91
2023/03/10 10:53:49;;;;;;;0.40;0.40;;;;;;;10.96;60.21;93649.41;6074551;23;20180;-90
2023/03/10 10:56:54;;;;;;;0.37;0.37;;;;;;;10.96;59.89;93628.81;6091482;23;20172;-91
2023/03/10 11:02:36;;;;;;;0.40;0.40;;;;;;;10.96;58.76;93610.78;6083455;23;20853;-91
2023/03/10 11:05:41;;;;;;;0.53;0.53;;;;;;;10.96;58.62;93603.06;6091159;23;20255;-92
2023/03/10 11:08:38;;;;;;;;;;;;;;;;;;;;;
2023/03/10 11:11:30;;;;;;;1.93;1.27;;;;;;;10.87;59.12;93603.63;6000852;23;20206;-91
2023/03/10 11:15:00;;;;;;;1.73;0.87;;;;;;;11.04;58.88;93584.66;6000572;23;20242;-91
2023/03/10 11:17:38;;;;;;;1.60;0.70;;;;;;;11.08;58.05;93574.69;5925440;23;20200;-91
2023/03/10 11:23:19;;;;;;;1.00;0.63;;;;;;;11.11;58.04;93581.19;6080192;23;20180;-91
2023/03/10 11:26:09;;;;;;;0.63;0.63;;;;;;;11.18;58.18;93577.44;6091523;23;20164;-92
2023/03/10 11:29:05;;;;;;;0.70;0.63;;;;;;;11.54;57.34;93550.56;6091364;23;20183;-91
2023/03/10 11:31:42;;;;;;;0.60;0.60;;;;;;;12.17;56.31;93546.91;6061551;23;20226;-91
2023/03/10 11:34:57;;;;;;;1.17;0.60;;;;;;;12.75;54.75;93540.47;6062319;23;20168;-91
2023/03/10 11:37:42;;;;;;;2.03;0.70;;;;;;;13.25;52.81;93527.38;5972886;23;20226;-92
2023/03/10 11:40:18;;;;;;;1.23;0.80;;;;;;;13.44;52.21;93520.06;5976708;23;20233;-93
2023/03/10 11:45:43;;;;;;;1.47;0.73;;;;;;;13.40;51.47;93531.94;6061083;23;20236;-91
2023/03/10 11:48:40;;;;;;;1.40;0.65;;;;;;;13.63;50.77;93520.50;6061899;23;20168;-92
2023/03/10 11:51:39;;;;;;;1.87;0.70;;;;;;;13.73;50.70;93528.34;6061384;23;20575;-91
2023/03/10 12:00:58;;;;;;;1.30;0.60;;;;;;;13.75;47.89;93503.00;6051516;23;20271;-90
2023/03/10 12:04:18;;;;;;;0.43;0.43;;;;;;;13.78;47.73;93505.88;6062198;23;20352;-91
2023/03/10 12:07:31;;;;;;;0.63;0.50;;;;;;;14.01;47.44;93504.78;5917605;24;20242;-91
2023/03/10 12:10:28;;;;;;;0.68;0.55;;;;;;;14.55;47.19;93490.88;5997791;23;21090;-91
2023/03/10 12:17:29;;;;;;;0.95;0.55;;;;;;;14.39;46.50;93477.81;6083782;23;20215;-92
2023/03/10 12:20:29;;;;;;;1.48;0.75;;;;;;;13.96;46.42;93476.28;5982164;23;20205;-90
2023/03/10 12:23:31;;;;;;;0.70;0.50;;;;;;;13.70;46.99;93474.53;6045379;23;20267;-91
2023/03/10 12:26:26;;;;;;;1.98;1.55;;;;;;;13.62;47.14;93506.00;6054508;23;20176;-90
2023/03/10 12:29:31;;;;;;;0.63;0.60;;;;;;;13.51;47.03;93502.56;6061742;23;20236;-92
2023/03/10 12:32:34;;;;;;;;;;;;;;;;;;;;;
2023/03/10 12:42:31;;;;;;;0.50;0.50;;;;;;;13.80;46.22;93483.16;6033171;23;20187;-90
2023/03/10 12:46:04;;;;;;;0.43;0.43;;;;;;;13.67;46.61;93498.28;6061464;23;20209;-92
2023/03/10 12:49:03;;;;;;;0.70;0.60;;;;;;;13.57;46.77;93493.03;5999676;23;20181;-91
2023/03/10 12:55:24;;;;;;;0.40;0.40;;;;;;;13.82;46.64;93501.78;5858876;24;20681;-92
2023/03/10 12:58:24;;;;;;;0.40;0.40;;;;;;;13.98;47.14;93512.25;5863042;24;20842;-92
2023/03/10 13:01:23;;;;;;;0.50;0.50;;;;;;;13.77;47.19;93522.44;6035036;23;20659;-92
2023/03/10 13:07:16;;;;;;;1.48;0.40;;;;;;;13.95;47.02;93498.00;5943240;23;20189;-92
2023/03/10 13:13:08;;;;;;;1.42;0.50;;;;;;;13.59;47.76;93506.50;5944548;24;20672;-91
2023/03/10 13:15:35;;;;;;;0.50;0.50;;;;;;;13.39;48.08;93497.53;6031504;23;20168;-90
2023/03/10 13:18:26;;;;;;;0.50;0.50;;;;;;;13.27;49.01;93499.50;6090351;23;20196;-93
2023/03/10 13:21:13;;;;;;;;;;;;;;;;;;;;;
2023/03/10 13:23:43;;;;;;;0.50;0.50;;;;;;;13.22;50.08;93507.19;6090154;23;20655;-92
2023/03/10 13:32:17;;;;;;;0.37;0.33;;;;;;;12.98;50.76;93529.13;6059899;23;20648;-92
2023/03/10 13:35:29;;;;;;;0.40;0.40;;;;;;;12.88;51.22;93547.88;6061402;23;20182;-91
2023/03/10 13:58:31;;;;;;;0.40;0.40;;;;;;;12.86;51.71;93526.69;6022006;23;4166298;-91
2023/03/10 14:01:27;;;;;;;1.50;1.40;;;;;;;12.79;51.63;93523.47;6187109;23;20189;-93
2023/03/10 14:07:31;;;;;;;0.50;0.50;;;;;;;12.37;52.83;93549.00;6068729;23;20179;-92
2023/03/10 14:10:51;;;;;;;0.40;0.40;;;;;;;12.33;53.40;93543.53;6094921;23;20214;-91
2023/03/10 14:14:03;;;;;;;0.43;0.43;;;;;;;12.14;53.45;93572.41;6090107;23;20183;-92
2023/03/10 14:17:23;;;;;;;0.40;0.40;;;;;;;12.00;53.96;93566.78;5980786;24;20191;-90
2023/03/10 14:23:41;;;;;;;0.50;0.50;;;;;;;12.15;54.25;93561.06;6187165;23;20193;-91
2023/03/10 14:33:18;;;;;;;0.40;0.33;;;;;;;12.03;54.12;93554.19;5975422;24;20300;-91
2023/03/10 14:47:05;;;;;;;0.93;0.43;;;;;;;12.06;54.18;93558.09;6212432;22;20286;-93
2023/03/10 14:53:32;;;;;;;1.80;0.77;;;;;;;12.15;54.28;93543.00;5981142;24;20175;-92
2023/03/10 15:12:41;;;;;;;;;;;;;;;;;;;;;
2023/03/10 15:15:20;;;;;;;0.30;0.30;;;;;;;11.01;62.01;93605.72;6058164;23;20307;-92
2023/03/10 15:17:54;;;;;;;3.43;2.73;;;;;;;10.99;62.18;93600.00;6116489;23;20252;-91
2023/03/10 15:23:46;;;;;;;0.40;0.40;;;;;;;10.82;62.71;93598.38;6087401;23;20211;-91
2023/03/10 15:26:13;;;;;;;0.40;0.40;;;;;;;10.77;62.64;93608.56;6082671;23;20180;-91
2023/03/10 15:28:52;;;;;;;0.30;0.30;;;;;;;10.67;63.06;93593.69;6157600;23;20178;-91
2023/03/10 15:31:19;;;;;;;0.40;0.40;;;;;;;10.70;62.57;93588.88;6178872;23;20253;-91
2023/03/10 15:33:51;;;;;;;1.30;0.40;;;;;;;10.57;63.24;93607.13;6179481;23;20177;-90
2023/03/10 15:36:36;;;;;;;0.30;0.30;;;;;;;10.61;63.46;93604.88;6179269;23;20258;-91
2023/03/10 15:39:07;;;;;;;0.40;0.40;;;;;;;10.41;65.91;93612.94;6180229;23;20158;-90
2023/03/10 15:41:36;;;;;;;0.40;0.40;;;;;;;10.42;66.45;93606.78;6178961;23;20245;-90
2023/03/10 15:44:06;;;;;;;0.37;0.37;;;;;;;10.36;68.15;93618.75;6179378;23;20197;-90
2023/03/10 15:46:33;;;;;;;0.30;0.30;;;;;;;10.29;68.96;93618.09;6178744;23;20623;-90
2023/03/10 15:49:05;;;;;;;0.60;0.60;;;;;;;10.30;70.76;93613.72;6179213;23;20212;-90
2023/03/10 15:51:38;;;;;;;1.20;0.60;;;;;;;10.41;71.80;93641.22;6178854;23;20163;-90
2023/03/10 15:54:11;;;;;;;2.23;0.50;;;;;;;10.20;72.75;93616.06;6179880;23;20197;-89
2023/03/10 15:56:37;;;;;;;0.50;0.50;;;;;;;10.10;73.08;93602.94;6178977;23;20663;-90
2023/03/10 15:59:32;;;;;;;0.70;0.50;;;;;;;10.01;74.98;93616.09;6179031;23;20681;-91
2023/03/10 16:02:11;;;;;;;0.60;0.60;;;;;;;10.23;75.31;93623.31;6180343;23;20257;-91
2023/03/10 16:05:39;;;;;;;0.80;0.50;;;;;;;10.22;75.31;93622.53;6179577;23;20195;-91
2023/03/10 16:08:18;;;;;;;0.47;0.47;;;;;;;10.15;75.41;93628.78;6178403;23;20177;-89
2023/03/10 16:10:50;;;;;;;1.50;0.63;;;;;;;10.10;75.31;93628.66;6178832;23;20205;-90
2023/03/10 16:13:22;;;;;;;0.50;0.50;;;;;;;10.07;75.51;93627.28;6177782;23;20177;-90
2023/03/10 16:16:00;;;;;;;0.40;0.40;;;;;;;10.15;74.16;93628.78;6178347;23;20667;-89
2023/03/10 16:18:27;;;;;;;0.60;0.60;;;;;;;10.21;73.89;93631.25;6178321;23;20233;-90
2023/03/10 16:20:58;;;;;;;0.50;0.50;;;;;;;10.13;72.71;93625.63;6178394;23;20276;-90